sim
Sign-in with your pilot id or email,
or register
Callsign
Passwort

Schedule Details

Flight Number: OEO8940
Departure: Grenoble Isere Airport (LFLS) at 06:45
Arrival: Munich Airport (EDDM) at 08:10

Weather Information
Getting current METAR information for LFLS 240400Z AUTO 07007KT CAVOK 16/15 Q1011 TEMPO 4000 BR BKN004
Getting current METAR information for EDDM 240420Z VRB02KT CAVOK 09/09 Q1009 NOSIG

Schedule Frequency

Route Map